sensor_id;sensor_type;location;lat;lon;timestamp;P1;durP1;ratioP1;P2;durP2;ratioP2
15931;SDS011;8065;49.520;11.284;2023-06-22T00:00:48;7.90;;;7.10;;
15931;SDS011;8065;49.520;11.284;2023-06-22T00:03:16;8.10;;;7.27;;
15931;SDS011;8065;49.520;11.284;2023-06-22T00:05:44;7.90;;;7.10;;
15931;SDS011;8065;49.520;11.284;2023-06-22T00:08:11;9.67;;;7.73;;
15931;SDS011;8065;49.520;11.284;2023-06-22T00:10:39;9.23;;;7.40;;
15931;SDS011;8065;49.520;11.284;2023-06-22T00:13:06;7.80;;;6.93;;
15931;SDS011;8065;49.520;11.284;2023-06-22T00:15:34;9.47;;;7.30;;
15931;SDS011;8065;49.520;11.284;2023-06-22T00:18:00;8.03;;;7.23;;
15931;SDS011;8065;49.520;11.284;2023-06-22T00:20:27;7.53;;;6.83;;
15931;SDS011;8065;49.520;11.284;2023-06-22T00:22:55;9.50;;;7.40;;
15931;SDS011;8065;49.520;11.284;2023-06-22T00:25:22;8.53;;;7.63;;
15931;SDS011;8065;49.520;11.284;2023-06-22T00:27:50;8.00;;;7.20;;
15931;SDS011;8065;49.520;11.284;2023-06-22T00:30:16;8.00;;;7.30;;
15931;SDS011;8065;49.520;11.284;2023-06-22T00:32:44;10.23;;;7.10;;
15931;SDS011;8065;49.520;11.284;2023-06-22T00:35:11;8.10;;;7.30;;
15931;SDS011;8065;49.520;11.284;2023-06-22T00:37:38;8.07;;;7.27;;
15931;SDS011;8065;49.520;11.284;2023-06-22T00:40:08;8.10;;;7.30;;
15931;SDS011;8065;49.520;11.284;2023-06-22T00:42:37;9.53;;;7.17;;
15931;SDS011;8065;49.520;11.284;2023-06-22T00:45:05;7.30;;;6.57;;
15931;SDS011;8065;49.520;11.284;2023-06-22T00:47:33;8.23;;;7.47;;
15931;SDS011;8065;49.520;11.284;2023-06-22T00:50:01;7.97;;;7.17;;
15931;SDS011;8065;49.520;11.284;2023-06-22T00:52:29;8.63;;;7.80;;
15931;SDS011;8065;49.520;11.284;2023-06-22T00:54:58;7.77;;;6.83;;
15931;SDS011;8065;49.520;11.284;2023-06-22T00:57:27;10.50;;;7.53;;
15931;SDS011;8065;49.520;11.284;2023-06-22T00:59:54;7.97;;;7.27;;
15931;SDS011;8065;49.520;11.284;2023-06-22T01:02:22;11.10;;;7.73;;
15931;SDS011;8065;49.520;11.284;2023-06-22T01:04:49;8.07;;;7.27;;
15931;SDS011;8065;49.520;11.284;2023-06-22T01:07:17;8.07;;;7.00;;
15931;SDS011;8065;49.520;11.284;2023-06-22T01:09:50;8.23;;;7.43;;
15931;SDS011;8065;49.520;11.284;2023-06-22T01:12:23;8.07;;;6.90;;
15931;SDS011;8065;49.520;11.284;2023-06-22T01:14:55;7.73;;;6.93;;
15931;SDS011;8065;49.520;11.284;2023-06-22T01:17:28;9.07;;;7.37;;
15931;SDS011;8065;49.520;11.284;2023-06-22T01:19:55;8.00;;;7.20;;
15931;SDS011;8065;49.520;11.284;2023-06-22T01:22:24;8.60;;;7.70;;
15931;SDS011;8065;49.520;11.284;2023-06-22T01:24:55;9.80;;;7.50;;
15931;SDS011;8065;49.520;11.284;2023-06-22T01:27:34;9.43;;;6.73;;
15931;SDS011;8065;49.520;11.284;2023-06-22T01:30:08;9.20;;;6.80;;
15931;SDS011;8065;49.520;11.284;2023-06-22T01:32:37;8.57;;;6.43;;
15931;SDS011;8065;49.520;11.284;2023-06-22T01:35:05;9.50;;;7.83;;
15931;SDS011;8065;49.520;11.284;2023-06-22T01:37:34;8.97;;;7.50;;
15931;SDS011;8065;49.520;11.284;2023-06-22T01:40:02;8.73;;;7.80;;
15931;SDS011;8065;49.520;11.284;2023-06-22T01:42:31;8.90;;;8.07;;
15931;SDS011;8065;49.520;11.284;2023-06-22T01:44:58;8.80;;;8.00;;
15931;SDS011;8065;49.520;11.284;2023-06-22T01:47:27;9.27;;;8.30;;
15931;SDS011;8065;49.520;11.284;2023-06-22T01:49:54;8.93;;;8.13;;
15931;SDS011;8065;49.520;11.284;2023-06-22T01:52:20;9.37;;;7.67;;
15931;SDS011;8065;49.520;11.284;2023-06-22T01:54:47;10.27;;;7.97;;
15931;SDS011;8065;49.520;11.284;2023-06-22T01:57:14;9.13;;;8.00;;
15931;SDS011;8065;49.520;11.284;2023-06-22T01:59:43;10.10;;;8.10;;
15931;SDS011;8065;49.520;11.284;2023-06-22T02:02:15;10.10;;;7.80;;
15931;SDS011;8065;49.520;11.284;2023-06-22T02:04:47;9.23;;;7.57;;
15931;SDS011;8065;49.520;11.284;2023-06-22T02:07:17;10.33;;;8.07;;
15931;SDS011;8065;49.520;11.284;2023-06-22T02:09:47;12.37;;;8.07;;
15931;SDS011;8065;49.520;11.284;2023-06-22T02:12:17;8.90;;;8.00;;
15931;SDS011;8065;49.520;11.284;2023-06-22T02:14:47;8.43;;;7.63;;
15931;SDS011;8065;49.520;11.284;2023-06-22T02:17:16;8.40;;;7.50;;
15931;SDS011;8065;49.520;11.284;2023-06-22T02:19:43;10.87;;;8.20;;
15931;SDS011;8065;49.520;11.284;2023-06-22T02:22:11;8.33;;;7.43;;
15931;SDS011;8065;49.520;11.284;2023-06-22T02:24:38;8.23;;;7.43;;
15931;SDS011;8065;49.520;11.284;2023-06-22T02:27:05;8.13;;;7.10;;
15931;SDS011;8065;49.520;11.284;2023-06-22T02:29:32;8.83;;;7.33;;
15931;SDS011;8065;49.520;11.284;2023-06-22T02:31:58;10.10;;;7.57;;
15931;SDS011;8065;49.520;11.284;2023-06-22T02:34:25;9.43;;;7.87;;
15931;SDS011;8065;49.520;11.284;2023-06-22T02:36:51;9.93;;;7.87;;
15931;SDS011;8065;49.520;11.284;2023-06-22T02:39:20;9.87;;;8.00;;
15931;SDS011;8065;49.520;11.284;2023-06-22T02:41:48;9.13;;;8.17;;
15931;SDS011;8065;49.520;11.284;2023-06-22T02:44:15;11.10;;;7.27;;
15931;SDS011;8065;49.520;11.284;2023-06-22T02:46:41;8.93;;;8.03;;
15931;SDS011;8065;49.520;11.284;2023-06-22T02:49:08;9.17;;;7.90;;
15931;SDS011;8065;49.520;11.284;2023-06-22T02:51:34;8.93;;;8.00;;
15931;SDS011;8065;49.520;11.284;2023-06-22T02:54:01;8.50;;;7.27;;
15931;SDS011;8065;49.520;11.284;2023-06-22T02:56:29;7.80;;;7.03;;
15931;SDS011;8065;49.520;11.284;2023-06-22T02:58:56;10.07;;;7.67;;
15931;SDS011;8065;49.520;11.284;2023-06-22T03:01:25;8.30;;;6.90;;
15931;SDS011;8065;49.520;11.284;2023-06-22T03:03:52;9.77;;;6.97;;
15931;SDS011;8065;49.520;11.284;2023-06-22T03:06:19;9.27;;;8.00;;
15931;SDS011;8065;49.520;11.284;2023-06-22T03:08:48;8.20;;;7.40;;
15931;SDS011;8065;49.520;11.284;2023-06-22T03:11:14;8.97;;;7.43;;
15931;SDS011;8065;49.520;11.284;2023-06-22T03:13:42;7.83;;;7.13;;
15931;SDS011;8065;49.520;11.284;2023-06-22T03:16:10;8.03;;;7.30;;
15931;SDS011;8065;49.520;11.284;2023-06-22T03:18:37;8.00;;;7.20;;
15931;SDS011;8065;49.520;11.284;2023-06-22T03:21:03;8.43;;;7.63;;
15931;SDS011;8065;49.520;11.284;2023-06-22T03:23:30;8.43;;;7.47;;
15931;SDS011;8065;49.520;11.284;2023-06-22T03:25:56;7.77;;;6.97;;
15931;SDS011;8065;49.520;11.284;2023-06-22T03:28:23;8.07;;;7.27;;
15931;SDS011;8065;49.520;11.284;2023-06-22T03:30:51;8.40;;;7.43;;
15931;SDS011;8065;49.520;11.284;2023-06-22T03:33:17;7.97;;;7.17;;
15931;SDS011;8065;49.520;11.284;2023-06-22T03:35:43;7.87;;;7.13;;
15931;SDS011;8065;49.520;11.284;2023-06-22T03:38:10;8.77;;;7.93;;
15931;SDS011;8065;49.520;11.284;2023-06-22T03:40:36;8.77;;;7.87;;
15931;SDS011;8065;49.520;11.284;2023-06-22T03:43:03;8.83;;;7.80;;
15931;SDS011;8065;49.520;11.284;2023-06-22T03:45:29;8.20;;;7.40;;
15931;SDS011;8065;49.520;11.284;2023-06-22T03:47:57;7.77;;;6.97;;
15931;SDS011;8065;49.520;11.284;2023-06-22T03:50:23;8.73;;;7.87;;
15931;SDS011;8065;49.520;11.284;2023-06-22T03:52:50;8.17;;;7.37;;
15931;SDS011;8065;49.520;11.284;2023-06-22T03:55:17;8.30;;;7.17;;
15931;SDS011;8065;49.520;11.284;2023-06-22T03:57:45;9.00;;;8.10;;
15931;SDS011;8065;49.520;11.284;2023-06-22T04:00:12;8.83;;;7.90;;
15931;SDS011;8065;49.520;11.284;2023-06-22T04:02:40;8.77;;;7.67;;
15931;SDS011;8065;49.520;11.284;2023-06-22T04:05:09;9.03;;;7.83;;
15931;SDS011;8065;49.520;11.284;2023-06-22T04:07:35;9.20;;;7.87;;
15931;SDS011;8065;49.520;11.284;2023-06-22T04:10:03;9.30;;;7.90;;
15931;SDS011;8065;49.520;11.284;2023-06-22T04:12:29;8.80;;;7.40;;
15931;SDS011;8065;49.520;11.284;2023-06-22T04:14:57;12.50;;;9.47;;
15931;SDS011;8065;49.520;11.284;2023-06-22T04:17:23;9.40;;;8.47;;
15931;SDS011;8065;49.520;11.284;2023-06-22T04:19:50;9.40;;;8.47;;
15931;SDS011;8065;49.520;11.284;2023-06-22T04:22:18;10.80;;;8.17;;
15931;SDS011;8065;49.520;11.284;2023-06-22T04:24:45;11.80;;;9.10;;
15931;SDS011;8065;49.520;11.284;2023-06-22T04:27:11;8.83;;;7.73;;
15931;SDS011;8065;49.520;11.284;2023-06-22T04:29:37;8.07;;;7.10;;
15931;SDS011;8065;49.520;11.284;2023-06-22T04:32:13;9.43;;;8.30;;
15931;SDS011;8065;49.520;11.284;2023-06-22T04:34:40;10.57;;;8.93;;
15931;SDS011;8065;49.520;11.284;2023-06-22T04:37:06;9.77;;;8.83;;
15931;SDS011;8065;49.520;11.284;2023-06-22T04:39:34;8.90;;;8.00;;
15931;SDS011;8065;49.520;11.284;2023-06-22T04:42:01;11.03;;;9.90;;
15931;SDS011;8065;49.520;11.284;2023-06-22T04:44:27;10.63;;;9.63;;
15931;SDS011;8065;49.520;11.284;2023-06-22T04:46:54;12.33;;;9.67;;
15931;SDS011;8065;49.520;11.284;2023-06-22T04:49:25;8.73;;;7.90;;
15931;SDS011;8065;49.520;11.284;2023-06-22T04:51:57;8.53;;;7.60;;
15931;SDS011;8065;49.520;11.284;2023-06-22T04:54:24;11.93;;;9.43;;
15931;SDS011;8065;49.520;11.284;2023-06-22T04:56:52;12.07;;;10.07;;
15931;SDS011;8065;49.520;11.284;2023-06-22T04:59:21;12.20;;;9.57;;
15931;SDS011;8065;49.520;11.284;2023-06-22T05:01:53;9.10;;;8.20;;
15931;SDS011;8065;49.520;11.284;2023-06-22T05:04:20;12.77;;;9.90;;
15931;SDS011;8065;49.520;11.284;2023-06-22T05:06:48;12.23;;;10.07;;
15931;SDS011;8065;49.520;11.284;2023-06-22T05:09:14;10.70;;;9.60;;
15931;SDS011;8065;49.520;11.284;2023-06-22T05:11:42;12.20;;;10.50;;
15931;SDS011;8065;49.520;11.284;2023-06-22T05:14:10;10.07;;;9.07;;
15931;SDS011;8065;49.520;11.284;2023-06-22T05:16:36;12.57;;;10.30;;
15931;SDS011;8065;49.520;11.284;2023-06-22T05:19:03;10.37;;;9.27;;
15931;SDS011;8065;49.520;11.284;2023-06-22T05:21:30;10.97;;;9.73;;
15931;SDS011;8065;49.520;11.284;2023-06-22T05:23:57;10.80;;;8.80;;
15931;SDS011;8065;49.520;11.284;2023-06-22T05:26:25;9.73;;;8.83;;
15931;SDS011;8065;49.520;11.284;2023-06-22T05:28:52;9.70;;;8.80;;
15931;SDS011;8065;49.520;11.284;2023-06-22T05:31:21;10.37;;;9.13;;
15931;SDS011;8065;49.520;11.284;2023-06-22T05:33:49;11.50;;;10.30;;
15931;SDS011;8065;49.520;11.284;2023-06-22T05:36:17;10.53;;;9.43;;
15931;SDS011;8065;49.520;11.284;2023-06-22T05:38:44;11.60;;;10.17;;
15931;SDS011;8065;49.520;11.284;2023-06-22T05:41:11;11.17;;;9.97;;
15931;SDS011;8065;49.520;11.284;2023-06-22T05:43:38;11.00;;;9.93;;
15931;SDS011;8065;49.520;11.284;2023-06-22T05:46:05;10.67;;;9.60;;
15931;SDS011;8065;49.520;11.284;2023-06-22T05:48:33;11.10;;;9.90;;
15931;SDS011;8065;49.520;11.284;2023-06-22T05:51:00;10.07;;;9.07;;
15931;SDS011;8065;49.520;11.284;2023-06-22T05:53:26;10.27;;;9.13;;
15931;SDS011;8065;49.520;11.284;2023-06-22T05:55:53;11.87;;;10.33;;
15931;SDS011;8065;49.520;11.284;2023-06-22T05:58:19;11.57;;;10.03;;
15931;SDS011;8065;49.520;11.284;2023-06-22T06:00:45;11.37;;;10.27;;
15931;SDS011;8065;49.520;11.284;2023-06-22T06:03:13;11.07;;;10.07;;
15931;SDS011;8065;49.520;11.284;2023-06-22T06:05:43;10.70;;;9.70;;
15931;SDS011;8065;49.520;11.284;2023-06-22T06:08:10;11.10;;;10.00;;
15931;SDS011;8065;49.520;11.284;2023-06-22T06:10:37;12.37;;;10.03;;
15931;SDS011;8065;49.520;11.284;2023-06-22T06:13:04;12.47;;;10.27;;
15931;SDS011;8065;49.520;11.284;2023-06-22T06:15:30;11.77;;;10.57;;
15931;SDS011;8065;49.520;11.284;2023-06-22T06:17:57;11.70;;;10.07;;
15931;SDS011;8065;49.520;11.284;2023-06-22T06:20:24;11.33;;;9.73;;
15931;SDS011;8065;49.520;11.284;2023-06-22T06:22:54;11.00;;;9.83;;
15931;SDS011;8065;49.520;11.284;2023-06-22T06:25:21;11.13;;;9.63;;
15931;SDS011;8065;49.520;11.284;2023-06-22T06:27:47;10.83;;;9.73;;
15931;SDS011;8065;49.520;11.284;2023-06-22T06:30:17;13.30;;;10.17;;
15931;SDS011;8065;49.520;11.284;2023-06-22T06:32:44;10.20;;;9.30;;
15931;SDS011;8065;49.520;11.284;2023-06-22T06:35:12;11.13;;;9.87;;
15931;SDS011;8065;49.520;11.284;2023-06-22T06:37:40;12.47;;;9.73;;
15931;SDS011;8065;49.520;11.284;2023-06-22T06:40:09;10.93;;;9.83;;
15931;SDS011;8065;49.520;11.284;2023-06-22T06:42:37;11.30;;;9.37;;
15931;SDS011;8065;49.520;11.284;2023-06-22T06:45:07;10.60;;;9.47;;
15931;SDS011;8065;49.520;11.284;2023-06-22T06:47:33;10.80;;;9.70;;
15931;SDS011;8065;49.520;11.284;2023-06-22T06:50:00;12.80;;;9.80;;
15931;SDS011;8065;49.520;11.284;2023-06-22T06:52:26;11.27;;;8.90;;
15931;SDS011;8065;49.520;11.284;2023-06-22T06:54:53;13.07;;;9.27;;
15931;SDS011;8065;49.520;11.284;2023-06-22T06:57:21;9.93;;;8.73;;
15931;SDS011;8065;49.520;11.284;2023-06-22T06:59:47;10.20;;;9.17;;
15931;SDS011;8065;49.520;11.284;2023-06-22T07:02:14;9.73;;;8.83;;
15931;SDS011;8065;49.520;11.284;2023-06-22T07:04:41;10.53;;;9.60;;
15931;SDS011;8065;49.520;11.284;2023-06-22T07:07:07;9.93;;;9.03;;
15931;SDS011;8065;49.520;11.284;2023-06-22T07:09:34;9.60;;;8.70;;
15931;SDS011;8065;49.520;11.284;2023-06-22T07:12:00;9.13;;;8.20;;
15931;SDS011;8065;49.520;11.284;2023-06-22T07:14:28;9.90;;;8.97;;
15931;SDS011;8065;49.520;11.284;2023-06-22T07:16:56;10.10;;;9.03;;
15931;SDS011;8065;49.520;11.284;2023-06-22T07:19:26;9.43;;;8.47;;
15931;SDS011;8065;49.520;11.284;2023-06-22T07:21:53;9.37;;;8.47;;
15931;SDS011;8065;49.520;11.284;2023-06-22T07:24:19;10.07;;;8.27;;
15931;SDS011;8065;49.520;11.284;2023-06-22T07:26:46;11.40;;;8.57;;
15931;SDS011;8065;49.520;11.284;2023-06-22T07:29:13;8.90;;;8.07;;
15931;SDS011;8065;49.520;11.284;2023-06-22T07:31:41;8.97;;;7.90;;
15931;SDS011;8065;49.520;11.284;2023-06-22T07:34:07;8.30;;;7.47;;
15931;SDS011;8065;49.520;11.284;2023-06-22T07:36:34;8.57;;;7.63;;
15931;SDS011;8065;49.520;11.284;2023-06-22T07:39:00;8.50;;;7.70;;
15931;SDS011;8065;49.520;11.284;2023-06-22T07:41:27;8.63;;;7.73;;
15931;SDS011;8065;49.520;11.284;2023-06-22T07:43:54;9.23;;;7.60;;
15931;SDS011;8065;49.520;11.284;2023-06-22T07:46:20;8.87;;;7.97;;
15931;SDS011;8065;49.520;11.284;2023-06-22T07:48:48;7.97;;;7.17;;
15931;SDS011;8065;49.520;11.284;2023-06-22T07:51:14;9.33;;;7.50;;
15931;SDS011;8065;49.520;11.284;2023-06-22T07:53:41;10.27;;;7.50;;
15931;SDS011;8065;49.520;11.284;2023-06-22T07:56:09;8.60;;;7.77;;
15931;SDS011;8065;49.520;11.284;2023-06-22T07:58:36;8.13;;;7.23;;
15931;SDS011;8065;49.520;11.284;2023-06-22T08:01:03;7.70;;;6.90;;
15931;SDS011;8065;49.520;11.284;2023-06-22T08:03:29;8.00;;;7.20;;
15931;SDS011;8065;49.520;11.284;2023-06-22T08:05:57;11.37;;;7.70;;
15931;SDS011;8065;49.520;11.284;2023-06-22T08:08:24;8.00;;;7.20;;
15931;SDS011;8065;49.520;11.284;2023-06-22T08:10:50;8.40;;;7.27;;
15931;SDS011;8065;49.520;11.284;2023-06-22T08:13:17;8.30;;;7.27;;
15931;SDS011;8065;49.520;11.284;2023-06-22T08:15:44;8.30;;;6.90;;
15931;SDS011;8065;49.520;11.284;2023-06-22T08:18:11;7.33;;;6.53;;
15931;SDS011;8065;49.520;11.284;2023-06-22T08:20:37;7.97;;;7.03;;
15931;SDS011;8065;49.520;11.284;2023-06-22T08:23:05;8.30;;;7.13;;
15931;SDS011;8065;49.520;11.284;2023-06-22T08:25:31;8.17;;;7.10;;
15931;SDS011;8065;49.520;11.284;2023-06-22T08:27:59;7.00;;;6.30;;
15931;SDS011;8065;49.520;11.284;2023-06-22T08:30:25;8.50;;;7.00;;
15931;SDS011;8065;49.520;11.284;2023-06-22T08:32:52;8.03;;;7.13;;
15931;SDS011;8065;49.520;11.284;2023-06-22T08:35:18;9.07;;;7.03;;
15931;SDS011;8065;49.520;11.284;2023-06-22T08:37:45;10.77;;;6.70;;
15931;SDS011;8065;49.520;11.284;2023-06-22T08:40:18;7.40;;;6.77;;
15931;SDS011;8065;49.520;11.284;2023-06-22T08:42:46;7.87;;;6.70;;
15931;SDS011;8065;49.520;11.284;2023-06-22T08:45:13;7.63;;;6.83;;
15931;SDS011;8065;49.520;11.284;2023-06-22T08:47:40;8.07;;;6.40;;
15931;SDS011;8065;49.520;11.284;2023-06-22T08:50:07;8.30;;;6.47;;
15931;SDS011;8065;49.520;11.284;2023-06-22T08:52:34;9.00;;;6.80;;
15931;SDS011;8065;49.520;11.284;2023-06-22T08:55:01;7.67;;;6.90;;
15931;SDS011;8065;49.520;11.284;2023-06-22T08:57:29;7.50;;;6.43;;
15931;SDS011;8065;49.520;11.284;2023-06-22T08:59:57;11.83;;;6.80;;
15931;SDS011;8065;49.520;11.284;2023-06-22T09:02:24;8.83;;;6.43;;
15931;SDS011;8065;49.520;11.284;2023-06-22T09:04:51;8.03;;;6.33;;
15931;SDS011;8065;49.520;11.284;2023-06-22T09:07:20;6.93;;;6.30;;
15931;SDS011;8065;49.520;11.284;2023-06-22T09:09:48;7.67;;;6.07;;
15931;SDS011;8065;49.520;11.284;2023-06-22T09:12:15;8.67;;;6.83;;
15931;SDS011;8065;49.520;11.284;2023-06-22T09:14:43;7.30;;;6.30;;
15931;SDS011;8065;49.520;11.284;2023-06-22T09:17:09;8.03;;;6.17;;
15931;SDS011;8065;49.520;11.284;2023-06-22T09:19:36;8.73;;;6.20;;
15931;SDS011;8065;49.520;11.284;2023-06-22T09:22:03;8.83;;;6.00;;
15931;SDS011;8065;49.520;11.284;2023-06-22T09:24:31;11.23;;;6.40;;
15931;SDS011;8065;49.520;11.284;2023-06-22T09:26:57;8.00;;;6.50;;
15931;SDS011;8065;49.520;11.284;2023-06-22T09:29:24;7.00;;;6.30;;
15931;SDS011;8065;49.520;11.284;2023-06-22T09:31:52;7.13;;;6.00;;
15931;SDS011;8065;49.520;11.284;2023-06-22T09:34:18;7.17;;;6.13;;
15931;SDS011;8065;49.520;11.284;2023-06-22T09:36:46;7.43;;;5.93;;
15931;SDS011;8065;49.520;11.284;2023-06-22T09:39:12;6.83;;;5.70;;
15931;SDS011;8065;49.520;11.284;2023-06-22T09:41:39;7.17;;;5.70;;
15931;SDS011;8065;49.520;11.284;2023-06-22T09:44:05;8.50;;;5.53;;
15931;SDS011;8065;49.520;11.284;2023-06-22T09:46:32;8.73;;;6.07;;
15931;SDS011;8065;49.520;11.284;2023-06-22T09:49:00;12.00;;;5.93;;
15931;SDS011;8065;49.520;11.284;2023-06-22T09:51:26;9.00;;;6.03;;
15931;SDS011;8065;49.520;11.284;2023-06-22T09:53:52;8.90;;;6.40;;
15931;SDS011;8065;49.520;11.284;2023-06-22T09:56:20;7.03;;;5.80;;
15931;SDS011;8065;49.520;11.284;2023-06-22T09:58:46;6.80;;;6.03;;
15931;SDS011;8065;49.520;11.284;2023-06-22T10:01:15;8.03;;;5.57;;
15931;SDS011;8065;49.520;11.284;2023-06-22T10:03:42;8.07;;;5.87;;
15931;SDS011;8065;49.520;11.284;2023-06-22T10:06:09;7.60;;;5.60;;
15931;SDS011;8065;49.520;11.284;2023-06-22T10:08:36;6.40;;;5.70;;
15931;SDS011;8065;49.520;11.284;2023-06-22T10:11:02;8.70;;;5.77;;
15931;SDS011;8065;49.520;11.284;2023-06-22T10:13:29;13.17;;;6.10;;
15931;SDS011;8065;49.520;11.284;2023-06-22T10:15:55;8.23;;;5.63;;
15931;SDS011;8065;49.520;11.284;2023-06-22T10:18:22;6.93;;;5.47;;
15931;SDS011;8065;49.520;11.284;2023-06-22T10:20:49;7.80;;;5.80;;
15931;SDS011;8065;49.520;11.284;2023-06-22T10:23:18;9.80;;;6.13;;
15931;SDS011;8065;49.520;11.284;2023-06-22T10:25:45;8.97;;;5.70;;
15931;SDS011;8065;49.520;11.284;2023-06-22T10:28:11;11.73;;;5.07;;
15931;SDS011;8065;49.520;11.284;2023-06-22T10:30:38;10.13;;;5.40;;
15931;SDS011;8065;49.520;11.284;2023-06-22T10:33:06;9.27;;;5.50;;
15931;SDS011;8065;49.520;11.284;2023-06-22T10:35:32;10.50;;;5.63;;
15931;SDS011;8065;49.520;11.284;2023-06-22T10:37:59;8.63;;;5.07;;
15931;SDS011;8065;49.520;11.284;2023-06-22T10:40:27;7.87;;;5.60;;
15931;SDS011;8065;49.520;11.284;2023-06-22T10:42:53;7.37;;;5.47;;
15931;SDS011;8065;49.520;11.284;2023-06-22T10:45:20;7.27;;;5.50;;
15931;SDS011;8065;49.520;11.284;2023-06-22T10:47:46;8.77;;;5.57;;
15931;SDS011;8065;49.520;11.284;2023-06-22T10:50:13;7.77;;;5.80;;
15931;SDS011;8065;49.520;11.284;2023-06-22T10:52:40;8.57;;;5.53;;
15931;SDS011;8065;49.520;11.284;2023-06-22T10:55:07;11.00;;;5.33;;
15931;SDS011;8065;49.520;11.284;2023-06-22T10:57:36;8.13;;;5.57;;
15931;SDS011;8065;49.520;11.284;2023-06-22T11:00:04;8.73;;;5.50;;
15931;SDS011;8065;49.520;11.284;2023-06-22T11:02:33;8.20;;;5.97;;
15931;SDS011;8065;49.520;11.284;2023-06-22T11:04:59;8.80;;;5.43;;
15931;SDS011;8065;49.520;11.284;2023-06-22T11:07:26;7.63;;;5.90;;
15931;SDS011;8065;49.520;11.284;2023-06-22T11:09:53;13.90;;;5.70;;
15931;SDS011;8065;49.520;11.284;2023-06-22T11:12:20;9.37;;;5.10;;
15931;SDS011;8065;49.520;11.284;2023-06-22T11:14:48;11.43;;;5.57;;
15931;SDS011;8065;49.520;11.284;2023-06-22T11:17:16;6.30;;;4.93;;
15931;SDS011;8065;49.520;11.284;2023-06-22T11:19:43;6.53;;;5.30;;
15931;SDS011;8065;49.520;11.284;2023-06-22T11:22:09;13.10;;;5.80;;
15931;SDS011;8065;49.520;11.284;2023-06-22T11:24:36;11.60;;;5.67;;
15931;SDS011;8065;49.520;11.284;2023-06-22T11:27:02;12.00;;;5.77;;
15931;SDS011;8065;49.520;11.284;2023-06-22T11:29:29;9.77;;;5.80;;
15931;SDS011;8065;49.520;11.284;2023-06-22T11:31:57;10.00;;;6.10;;
15931;SDS011;8065;49.520;11.284;2023-06-22T11:34:23;8.07;;;5.83;;
15931;SDS011;8065;49.520;11.284;2023-06-22T11:36:50;8.73;;;5.60;;
15931;SDS011;8065;49.520;11.284;2023-06-22T11:39:16;11.97;;;5.87;;
15931;SDS011;8065;49.520;11.284;2023-06-22T11:41:43;8.60;;;5.70;;
15931;SDS011;8065;49.520;11.284;2023-06-22T11:44:09;9.57;;;5.90;;
15931;SDS011;8065;49.520;11.284;2023-06-22T11:46:36;9.50;;;6.03;;
15931;SDS011;8065;49.520;11.284;2023-06-22T11:49:04;11.70;;;6.20;;
15931;SDS011;8065;49.520;11.284;2023-06-22T11:51:30;9.53;;;5.57;;
15931;SDS011;8065;49.520;11.284;2023-06-22T11:53:57;7.23;;;5.37;;
15931;SDS011;8065;49.520;11.284;2023-06-22T11:56:23;10.03;;;5.80;;
15931;SDS011;8065;49.520;11.284;2023-06-22T11:58:50;10.13;;;5.50;;
15931;SDS011;8065;49.520;11.284;2023-06-22T12:01:16;10.00;;;6.10;;
15931;SDS011;8065;49.520;11.284;2023-06-22T12:03:43;7.40;;;5.50;;
15931;SDS011;8065;49.520;11.284;2023-06-22T12:06:11;9.17;;;5.33;;
15931;SDS011;8065;49.520;11.284;2023-06-22T12:08:37;9.23;;;5.97;;
15931;SDS011;8065;49.520;11.284;2023-06-22T12:11:04;7.13;;;5.50;;
15931;SDS011;8065;49.520;11.284;2023-06-22T12:13:30;10.53;;;5.87;;
15931;SDS011;8065;49.520;11.284;2023-06-22T12:15:56;13.17;;;6.40;;
15931;SDS011;8065;49.520;11.284;2023-06-22T12:18:23;10.60;;;5.73;;
15931;SDS011;8065;49.520;11.284;2023-06-22T12:20:49;8.97;;;5.80;;
15931;SDS011;8065;49.520;11.284;2023-06-22T12:23:17;10.83;;;5.83;;
15931;SDS011;8065;49.520;11.284;2023-06-22T12:25:44;8.37;;;5.83;;
15931;SDS011;8065;49.520;11.284;2023-06-22T12:28:11;12.13;;;5.80;;
15931;SDS011;8065;49.520;11.284;2023-06-22T12:30:38;11.57;;;5.77;;
15931;SDS011;8065;49.520;11.284;2023-06-22T12:33:04;8.30;;;6.10;;
15931;SDS011;8065;49.520;11.284;2023-06-22T12:35:30;10.20;;;6.67;;
15931;SDS011;8065;49.520;11.284;2023-06-22T12:37:57;10.03;;;6.17;;
15931;SDS011;8065;49.520;11.284;2023-06-22T12:40:25;8.80;;;5.87;;
15931;SDS011;8065;49.520;11.284;2023-06-22T12:42:51;9.87;;;5.60;;
15931;SDS011;8065;49.520;11.284;2023-06-22T12:45:18;12.30;;;6.00;;
15931;SDS011;8065;49.520;11.284;2023-06-22T12:47:46;8.60;;;6.10;;
15931;SDS011;8065;49.520;11.284;2023-06-22T12:50:15;9.57;;;5.70;;
15931;SDS011;8065;49.520;11.284;2023-06-22T12:52:41;13.73;;;6.93;;
15931;SDS011;8065;49.520;11.284;2023-06-22T12:55:08;16.97;;;6.43;;
15931;SDS011;8065;49.520;11.284;2023-06-22T12:57:36;9.63;;;6.10;;
15931;SDS011;8065;49.520;11.284;2023-06-22T13:00:02;9.60;;;6.17;;
15931;SDS011;8065;49.520;11.284;2023-06-22T13:02:30;12.60;;;6.00;;
15931;SDS011;8065;49.520;11.284;2023-06-22T13:04:56;10.47;;;6.20;;
15931;SDS011;8065;49.520;11.284;2023-06-22T13:07:23;11.57;;;5.93;;
15931;SDS011;8065;49.520;11.284;2023-06-22T13:09:49;11.63;;;6.73;;
15931;SDS011;8065;49.520;11.284;2023-06-22T13:12:16;11.27;;;6.20;;
15931;SDS011;8065;49.520;11.284;2023-06-22T13:14:46;11.73;;;6.47;;
15931;SDS011;8065;49.520;11.284;2023-06-22T13:17:12;9.10;;;5.77;;
15931;SDS011;8065;49.520;11.284;2023-06-22T13:19:39;11.23;;;6.37;;
15931;SDS011;8065;49.520;11.284;2023-06-22T13:22:09;12.77;;;6.33;;
15931;SDS011;8065;49.520;11.284;2023-06-22T13:24:53;9.87;;;6.30;;
15931;SDS011;8065;49.520;11.284;2023-06-22T13:27:19;11.70;;;6.43;;
15931;SDS011;8065;49.520;11.284;2023-06-22T13:29:47;10.13;;;5.87;;
15931;SDS011;8065;49.520;11.284;2023-06-22T13:32:14;9.70;;;6.20;;
15931;SDS011;8065;49.520;11.284;2023-06-22T13:34:40;10.00;;;5.73;;
15931;SDS011;8065;49.520;11.284;2023-06-22T13:37:06;13.20;;;5.90;;
15931;SDS011;8065;49.520;11.284;2023-06-22T13:39:33;12.47;;;6.00;;
15931;SDS011;8065;49.520;11.284;2023-06-22T13:41:59;8.27;;;5.83;;
15931;SDS011;8065;49.520;11.284;2023-06-22T13:44:26;14.63;;;6.10;;
15931;SDS011;8065;49.520;11.284;2023-06-22T13:46:55;14.83;;;6.20;;
15931;SDS011;8065;49.520;11.284;2023-06-22T13:49:21;11.70;;;6.37;;
15931;SDS011;8065;49.520;11.284;2023-06-22T13:51:48;12.97;;;5.80;;
15931;SDS011;8065;49.520;11.284;2023-06-22T13:54:15;14.57;;;6.00;;
15931;SDS011;8065;49.520;11.284;2023-06-22T13:56:42;9.70;;;6.23;;
15931;SDS011;8065;49.520;11.284;2023-06-22T13:59:09;15.07;;;6.10;;
15931;SDS011;8065;49.520;11.284;2023-06-22T14:01:35;10.53;;;5.90;;
15931;SDS011;8065;49.520;11.284;2023-06-22T14:04:03;12.50;;;5.97;;
15931;SDS011;8065;49.520;11.284;2023-06-22T14:06:30;10.40;;;5.90;;
15931;SDS011;8065;49.520;11.284;2023-06-22T14:08:56;9.23;;;5.80;;
15931;SDS011;8065;49.520;11.284;2023-06-22T14:11:22;10.33;;;6.03;;
15931;SDS011;8065;49.520;11.284;2023-06-22T14:13:50;9.50;;;5.47;;
15931;SDS011;8065;49.520;11.284;2023-06-22T14:16:17;13.60;;;6.20;;
15931;SDS011;8065;49.520;11.284;2023-06-22T14:18:44;11.37;;;6.00;;
15931;SDS011;8065;49.520;11.284;2023-06-22T14:21:12;11.77;;;6.20;;
15931;SDS011;8065;49.520;11.284;2023-06-22T14:23:38;14.83;;;5.93;;
15931;SDS011;8065;49.520;11.284;2023-06-22T14:26:05;11.30;;;6.20;;
15931;SDS011;8065;49.520;11.284;2023-06-22T14:28:31;10.90;;;6.67;;
15931;SDS011;8065;49.520;11.284;2023-06-22T14:30:58;10.27;;;6.37;;
15931;SDS011;8065;49.520;11.284;2023-06-22T14:33:24;11.43;;;5.97;;
15931;SDS011;8065;49.520;11.284;2023-06-22T14:35:50;11.70;;;5.90;;
15931;SDS011;8065;49.520;11.284;2023-06-22T14:38:18;10.30;;;5.60;;
15931;SDS011;8065;49.520;11.284;2023-06-22T14:40:46;15.27;;;6.47;;
15931;SDS011;8065;49.520;11.284;2023-06-22T14:43:12;13.50;;;6.77;;